Time;durP1;ratioP1;P1;durP2;ratioP2;P2;SDS_P1;SDS_P2;PMS_P1;PMS_P2;Temp;Humidity;BMP_temperature;BMP_pressure;BME280_temperature;BME280_humidity;BME280_pressure;Samples;Min_cycle;Max_cycle;Signal;HPM_P1;HPM_P2
2023/03/27 00:01:10;;;;;;;5.97;2.28;;;;;;;12.34;39.82;98821.03;3164538;28;20417;-75
2023/03/27 00:02:41;;;;;;;4.97;2.05;;;;;;;12.34;39.73;98821.03;3164635;28;20519;-74
2023/03/27 00:04:15;;;;;;;3.42;1.70;;;;;;;12.31;39.91;98822.06;3164511;28;20052;-75
2023/03/27 00:05:46;;;;;;;3.92;1.83;;;;;;;12.29;40.17;98813.47;3164319;28;20107;-75
2023/03/27 00:07:18;;;;;;;5.60;1.60;;;;;;;11.82;40.07;98742.66;3164267;28;20500;-75
2023/03/27 00:08:51;;;;;;;4.47;1.90;;;;;;;12.22;40.31;98815.69;3164689;28;20552;-75
2023/03/27 00:10:25;;;;;;;6.75;1.60;;;;;;;12.20;39.91;98809.72;3161827;28;20052;-75
2023/03/27 00:11:57;;;;;;;5.28;1.70;;;;;;;12.14;40.29;98798.88;3160633;28;20056;-76
2023/03/27 00:13:30;;;;;;;5.88;1.77;;;;;;;12.15;40.10;98800.53;3150082;28;20063;-75
2023/03/27 00:15:01;;;;;;;5.93;1.73;;;;;;;12.09;40.36;98800.94;3146785;28;20059;-74
2023/03/27 00:16:33;;;;;;;5.43;1.70;;;;;;;12.06;40.60;98800.19;3158705;28;20062;-75
2023/03/27 00:18:05;;;;;;;3.95;1.55;;;;;;;12.05;40.57;98798.53;3160745;28;20083;-76
2023/03/27 00:19:39;;;;;;;3.50;1.73;;;;;;;12.09;40.58;98809.59;3160741;28;20052;-76
2023/03/27 00:21:09;;;;;;;4.57;1.88;;;;;;;12.09;40.49;98800.94;3160557;28;20524;-74
2023/03/27 00:22:41;;;;;;;8.68;2.50;;;;;;;12.10;40.42;98798.25;3160185;28;20147;-75
2023/03/27 00:24:14;;;;;;;7.80;2.10;;;;;;;12.12;40.38;98805.94;3160252;28;20124;-75
2023/03/27 00:25:48;;;;;;;4.05;1.75;;;;;;;12.04;40.42;98789.06;3160507;28;20056;-75
2023/03/27 00:27:20;;;;;;;6.53;1.90;;;;;;;12.09;40.77;98795.72;3160452;28;20044;-74
2023/03/27 00:28:52;;;;;;;6.03;2.20;;;;;;;12.06;40.48;98796.75;3153291;28;20058;-74
2023/03/27 00:30:25;;;;;;;6.10;1.85;;;;;;;12.03;40.60;98799.56;3160028;28;20432;-74
2023/03/27 00:31:57;;;;;;;3.55;1.50;;;;;;;11.96;40.69;98795.72;3160382;28;20051;-73
2023/03/27 00:33:29;;;;;;;3.95;1.48;;;;;;;11.92;41.06;98802.91;3159977;28;20397;-73
2023/03/27 00:35:02;;;;;;;6.65;1.83;;;;;;;11.88;40.77;98806.66;3157798;28;20047;-76
2023/03/27 00:36:34;;;;;;;5.05;1.85;;;;;;;11.83;40.85;98800.88;3160692;28;20043;-74
2023/03/27 00:38:08;;;;;;;5.53;1.92;;;;;;;11.74;40.84;98796.25;3161025;28;20047;-74
2023/03/27 00:39:41;;;;;;;3.50;1.50;;;;;;;11.73;41.29;98799.81;3159465;28;20116;-73
2023/03/27 00:41:13;;;;;;;4.90;1.92;;;;;;;11.66;41.01;98785.53;3159083;28;20078;-74
2023/03/27 00:42:47;;;;;;;5.43;2.22;;;;;;;11.20;41.14;98713.75;3156700;28;20440;-76
2023/03/27 00:44:24;;;;;;;6.65;2.55;;;;;;;11.64;41.63;98784.78;3158813;28;20138;-76
2023/03/27 00:45:57;;;;;;;7.20;2.15;;;;;;;11.56;41.75;98786.09;3163696;28;20051;-74
2023/03/27 00:47:32;;;;;;;9.15;2.78;;;;;;;10.93;41.69;98695.53;3169617;28;20090;-75
2023/03/27 00:49:08;;;;;;;7.90;2.08;;;;;;;11.45;42.22;98788.59;3169627;28;20094;-75
2023/03/27 00:50:43;;;;;;;5.88;2.35;;;;;;;11.42;41.93;98780.97;3156796;28;20048;-74
2023/03/27 00:52:15;;;;;;;5.28;2.20;;;;;;;11.39;42.17;98773.34;3157007;28;20093;-74
2023/03/27 00:53:48;;;;;;;6.07;2.30;;;;;;;11.41;42.45;98774.06;3168854;28;20070;-73
2023/03/27 00:55:21;;;;;;;6.53;2.20;;;;;;;11.41;42.31;98768.84;3163704;28;20044;-73
2023/03/27 00:56:55;;;;;;;;;;;;;;;11.38;42.24;98761.22;3157625;28;20443;-73
2023/03/27 00:58:30;;;;;;;8.40;2.22;;;;;;;11.35;42.29;98764.03;3157535;28;19951;-74
2023/03/27 01:00:09;;;;;;;7.55;1.90;;;;;;;11.39;42.53;98763.75;3169045;28;20082;-74
2023/03/27 01:01:43;;;;;;;6.60;2.83;;;;;;;11.43;42.47;98755.72;3171795;28;20043;-73
2023/03/27 01:03:16;;;;;;;5.43;1.98;;;;;;;11.13;42.53;98713.31;3171493;28;20048;-73
2023/03/27 01:04:49;;;;;;;7.35;2.67;;;;;;;11.47;42.21;98751.97;3171475;28;20048;-73
2023/03/27 01:06:22;;;;;;;6.07;2.40;;;;;;;11.48;42.43;98744.06;3171522;28;20055;-74
2023/03/27 01:07:55;;;;;;;9.40;2.28;;;;;;;11.47;42.43;98742.38;3171906;28;20122;-73
2023/03/27 01:09:27;;;;;;;4.78;2.58;;;;;;;11.46;42.61;98743.31;3171448;28;20051;-73
2023/03/27 01:11:10;;;;;;;5.13;1.80;;;;;;;11.46;42.63;98748.53;3171507;28;20496;-73
2023/03/27 01:12:54;;;;;;;9.20;2.10;;;;;;;11.47;42.41;98741.53;3168544;28;20055;-73
2023/03/27 01:14:31;;;;;;;;;;;;;;;11.45;42.10;98746.03;3167370;28;20047;-73
2023/03/27 01:16:10;;;;;;;5.47;2.80;;;;;;;11.44;42.67;98755.63;3171671;28;19919;-73
2023/03/27 01:17:55;;;;;;;5.88;2.03;;;;;;;11.50;42.81;98754.38;3171206;28;20051;-73
2023/03/27 01:20:01;;;;;;;8.45;2.97;;;;;;;11.53;42.45;98759.38;3168086;28;20052;-72
2023/03/27 01:22:18;;;;;;;7.82;3.20;;;;;;;11.54;42.64;98741.06;3155866;28;20070;-73
2023/03/27 01:24:13;;;;;;;10.30;3.90;;;;;;;11.55;42.67;98740.09;3164446;28;20124;-73
2023/03/27 01:26:07;;;;;;;11.05;4.32;;;;;;;11.57;42.92;98733.03;3171396;28;20075;-73
2023/03/27 01:28:04;;;;;;;12.00;4.70;;;;;;;11.58;42.65;98729.47;3166559;28;20048;-75
2023/03/27 01:29:53;;;;;;;11.90;4.63;;;;;;;11.56;43.18;98726.13;3148739;28;20101;-75
2023/03/27 01:31:38;;;;;;;12.25;5.43;;;;;;;11.56;42.95;98731.34;3150747;28;20117;-74
2023/03/27 01:33:51;;;;;;;16.00;4.85;;;;;;;11.59;42.98;98730.31;3161739;28;20516;-75
2023/03/27 01:35:54;;;;;;;13.90;5.30;;;;;;;11.55;43.31;98721.84;3155856;28;20059;-74
2023/03/27 01:37:57;;;;;;;9.27;4.57;;;;;;;11.56;43.15;98715.69;3135111;28;20507;-73
2023/03/27 01:39:38;;;;;;;11.82;5.25;;;;;;;11.58;43.12;98716.44;3157663;28;20058;-73
2023/03/27 01:41:13;;;;;;;16.92;5.43;;;;;;;11.58;43.45;98713.00;3161152;28;20079;-73
2023/03/27 01:42:50;;;;;;;18.73;5.75;;;;;;;11.49;43.52;98696.19;3159059;28;20051;-73
2023/03/27 01:44:30;;;;;;;18.35;5.95;;;;;;;11.57;43.51;98706.13;3161802;28;20527;-73
2023/03/27 01:46:07;;;;;;;19.02;5.90;;;;;;;11.56;43.60;98702.66;3161703;28;20530;-74
2023/03/27 01:47:46;;;;;;;11.75;5.68;;;;;;;11.54;43.80;98701.94;3161070;28;20217;-73
2023/03/27 01:49:23;;;;;;;13.05;5.22;;;;;;;11.53;43.71;98705.47;3162572;28;20073;-74
2023/03/27 01:51:01;;;;;;;15.30;5.20;;;;;;;11.53;43.84;98709.84;3160386;28;20055;-74
2023/03/27 01:52:36;;;;;;;12.32;5.07;;;;;;;11.53;43.81;98712.47;3150877;28;20143;-73
2023/03/27 01:54:14;;;;;;;14.40;5.40;;;;;;;11.52;43.95;98709.03;3161464;28;20459;-73
2023/03/27 01:55:53;;;;;;;12.38;5.10;;;;;;;11.44;43.59;98692.22;3161347;28;20158;-77
2023/03/27 01:57:29;;;;;;;17.98;5.68;;;;;;;11.48;44.01;98698.91;3151144;28;20055;-75
2023/03/27 01:59:03;;;;;;;17.17;4.95;;;;;;;11.47;44.09;98697.22;3151741;28;20048;-75
2023/03/27 02:00:38;;;;;;;12.40;5.25;;;;;;;11.46;44.19;98703.38;3162207;28;20051;-75
2023/03/27 02:02:13;;;;;;;12.57;4.70;;;;;;;11.42;43.90;98692.34;3161893;28;20052;-74
2023/03/27 02:03:48;;;;;;;11.15;4.70;;;;;;;11.40;44.09;98691.59;3162359;28;20055;-76
2023/03/27 02:05:25;;;;;;;12.05;5.47;;;;;;;11.42;44.15;98699.28;3161861;28;20052;-75
2023/03/27 02:07:01;;;;;;;8.68;4.25;;;;;;;11.41;44.42;98705.47;3161417;28;20135;-76
2023/03/27 02:08:38;;;;;;;11.43;4.38;;;;;;;11.34;44.26;98705.88;3160978;28;20051;-76
2023/03/27 02:10:16;;;;;;;11.32;3.80;;;;;;;11.26;44.48;98696.88;3160718;28;20048;-75
2023/03/27 02:11:54;;;;;;;11.98;2.90;;;;;;;11.14;44.31;98688.09;3160766;28;20549;-75
2023/03/27 02:13:33;;;;;;;6.43;2.60;;;;;;;11.05;44.45;98693.91;3147636;28;20292;-75
2023/03/27 02:15:10;;;;;;;10.95;2.67;;;;;;;10.97;44.68;98697.00;3148611;28;20853;-75
2023/03/27 02:16:48;;;;;;;8.32;2.65;;;;;;;10.92;44.79;98699.91;3154777;28;20058;-75
2023/03/27 02:18:28;;;;;;;8.93;3.40;;;;;;;10.89;45.13;98688.84;3152882;28;20323;-76
2023/03/27 02:20:09;;;;;;;5.38;2.92;;;;;;;10.84;45.11;98686.53;3147951;28;20793;-76
2023/03/27 02:21:41;;;;;;;6.68;2.72;;;;;;;10.79;44.94;98682.53;3162053;28;20487;-75
2023/03/27 02:23:12;;;;;;;6.63;2.97;;;;;;;10.68;44.84;98663.25;3162362;28;20051;-75
2023/03/27 02:24:45;;;;;;;8.32;2.88;;;;;;;10.77;45.29;98684.44;3161182;28;20500;-73
2023/03/27 02:26:17;;;;;;;6.38;3.00;;;;;;;10.72;45.44;98670.88;3161049;28;20058;-74
2023/03/27 02:27:57;;;;;;;11.17;4.30;;;;;;;10.73;45.04;98677.72;3157338;28;20517;-74
2023/03/27 02:29:46;;;;;;;17.77;4.75;;;;;;;10.70;45.18;98676.16;3159478;28;20901;-73
2023/03/27 02:31:36;;;;;;;8.00;2.83;;;;;;;10.56;45.10;98648.41;3161558;28;20052;-75
2023/03/27 02:33:17;;;;;;;6.80;2.38;;;;;;;10.63;45.26;98661.88;3149753;28;20595;-74
2023/03/27 02:35:10;;;;;;;8.00;2.53;;;;;;;10.62;45.23;98666.25;3161362;28;20081;-74
2023/03/27 02:36:49;;;;;;;6.82;2.40;;;;;;;10.60;45.30;98662.88;3161375;28;20707;-75
2023/03/27 02:38:27;;;;;;;9.30;2.55;;;;;;;10.56;45.46;98658.81;3160199;28;20047;-74
2023/03/27 02:40:09;;;;;;;7.47;2.60;;;;;;;10.55;45.40;98670.16;3153590;28;20078;-74
2023/03/27 02:41:49;;;;;;;8.38;2.45;;;;;;;10.54;45.70;98663.28;3160900;28;20642;-73
2023/03/27 02:43:32;;;;;;;7.15;2.33;;;;;;;10.51;45.84;98654.84;3158256;28;20066;-74
2023/03/27 02:45:11;;;;;;;4.60;2.17;;;;;;;10.44;45.71;98654.38;3158821;28;20055;-73
2023/03/27 02:46:47;;;;;;;9.02;2.10;;;;;;;9.96;45.95;98579.25;3160448;28;20502;-74
2023/03/27 02:48:27;;;;;;;8.80;2.50;;;;;;;10.43;46.04;98660.50;3165895;28;20040;-73
2023/03/27 02:50:05;;;;;;;6.95;2.40;;;;;;;10.39;46.46;98656.44;3170169;28;20123;-75
2023/03/27 02:51:41;;;;;;;5.30;2.35;;;;;;;10.40;46.08;98652.91;3170376;28;20083;-75
2023/03/27 02:53:17;;;;;;;4.55;2.20;;;;;;;10.39;46.19;98648.63;3170721;28;20135;-73
2023/03/27 02:54:55;;;;;;;5.47;2.17;;;;;;;10.36;46.60;98651.44;3170183;28;20625;-74
2023/03/27 02:56:31;;;;;;;9.50;2.22;;;;;;;10.33;46.58;98644.66;3170329;28;20147;-73
2023/03/27 02:58:07;;;;;;;6.82;2.75;;;;;;;9.65;46.86;98543.09;3164420;28;20076;-75
2023/03/27 02:59:44;;;;;;;8.13;2.25;;;;;;;10.30;46.92;98639.63;3163984;28;20047;-72
2023/03/27 03:01:20;;;;;;;11.98;2.50;;;;;;;10.23;46.76;98633.94;3170412;28;20047;-75
2023/03/27 03:02:58;;;;;;;5.72;2.63;;;;;;;10.32;46.68;98645.56;3170070;28;20500;-75
2023/03/27 03:04:40;;;;;;;6.53;2.80;;;;;;;10.32;46.77;98649.94;3170077;28;20051;-74
2023/03/27 03:06:13;;;;;;;5.80;2.80;;;;;;;10.25;46.70;98639.03;3170337;28;20134;-73
2023/03/27 03:07:45;;;;;;;6.10;2.92;;;;;;;10.29;47.03;98639.72;3170239;28;20048;-73
2023/03/27 03:09:17;;;;;;;14.13;2.83;;;;;;;10.27;46.89;98639.00;3170059;28;20381;-73
2023/03/27 03:10:48;;;;;;;11.10;2.40;;;;;;;10.24;47.20;98640.81;3170090;28;20443;-73
2023/03/27 03:12:21;;;;;;;8.93;2.42;;;;;;;9.44;46.86;98517.50;3169851;28;20054;-75
2023/03/27 03:13:53;;;;;;;6.38;2.38;;;;;;;10.22;47.22;98628.84;3170141;28;20043;-73
2023/03/27 03:15:26;;;;;;;7.68;2.55;;;;;;;10.19;47.13;98634.22;3169913;28;20051;-73
2023/03/27 03:16:58;;;;;;;5.57;2.87;;;;;;;10.20;47.02;98638.50;3170130;28;20048;-72
2023/03/27 03:18:30;;;;;;;7.50;2.60;;;;;;;10.19;47.36;98640.25;3170097;28;20317;-72
2023/03/27 03:20:04;;;;;;;7.80;2.70;;;;;;;10.19;47.11;98639.44;3169731;28;20039;-72
2023/03/27 03:21:36;;;;;;;8.77;2.92;;;;;;;10.17;47.56;98638.69;3169611;28;20845;-73
2023/03/27 03:23:08;;;;;;;7.40;2.22;;;;;;;10.17;47.42;98639.50;3156904;28;20051;-75
2023/03/27 03:24:42;;;;;;;6.75;2.88;;;;;;;10.17;47.49;98638.69;3169462;28;20104;-73
2023/03/27 03:26:15;;;;;;;6.93;2.65;;;;;;;10.14;47.71;98639.69;3169849;28;20051;-73
2023/03/27 03:27:46;;;;;;;9.90;2.85;;;;;;;9.99;47.76;98620.66;3166311;28;20543;-73
2023/03/27 03:29:18;;;;;;;14.90;3.00;;;;;;;10.08;47.67;98641.84;3168065;28;20052;-73
2023/03/27 03:30:52;;;;;;;7.38;2.97;;;;;;;10.05;47.89;98635.06;3169786;28;20077;-73
2023/03/27 03:32:25;;;;;;;8.60;3.20;;;;;;;10.00;47.98;98626.72;3169994;28;20517;-73
2023/03/27 03:33:57;;;;;;;10.77;3.83;;;;;;;9.91;47.95;98619.47;3168975;28;20122;-75
2023/03/27 03:35:27;;;;;;;12.82;3.67;;;;;;;9.82;48.28;98607.91;3169964;28;20050;-74
2023/03/27 03:36:59;;;;;;;15.35;4.13;;;;;;;9.81;48.18;98614.00;3169925;28;20070;-72
2023/03/27 03:38:34;;;;;;;11.18;3.40;;;;;;;9.75;48.26;98601.38;3170088;28;20048;-73
2023/03/27 03:40:10;;;;;;;9.27;3.40;;;;;;;9.72;48.33;98602.41;3168498;28;20043;-73
2023/03/27 03:41:42;;;;;;;10.27;3.78;;;;;;;9.63;48.77;98597.75;3169309;28;20055;-74
2023/03/27 03:43:14;;;;;;;9.75;4.10;;;;;;;9.54;48.79;98603.53;3167342;28;20569;-73
2023/03/27 03:44:46;;;;;;;12.23;3.88;;;;;;;9.49;48.92;98605.53;3170001;28;20059;-73
2023/03/27 03:46:18;;;;;;;7.72;3.50;;;;;;;9.45;49.12;98606.66;3169856;28;20047;-73
2023/03/27 03:47:50;;;;;;;8.77;3.40;;;;;;;9.42;49.24;98604.25;3169988;28;20047;-73
2023/03/27 03:49:22;;;;;;;9.00;3.78;;;;;;;9.43;49.19;98595.53;3169516;28;20047;-71
2023/03/27 03:50:54;;;;;;;10.32;3.30;;;;;;;9.42;49.27;98596.47;3169628;28;20112;-73
2023/03/27 03:52:26;;;;;;;14.10;3.65;;;;;;;9.38;49.42;98589.78;3169851;28;20135;-72
2023/03/27 03:53:58;;;;;;;11.57;3.47;;;;;;;9.37;49.42;98601.91;3169959;28;20066;-73
2023/03/27 03:55:29;;;;;;;12.75;4.00;;;;;;;9.10;49.81;98563.66;3169592;28;20558;-69
2023/03/27 03:57:02;;;;;;;11.48;3.53;;;;;;;9.29;49.67;98593.75;3157654;28;20056;-73
2023/03/27 03:58:34;;;;;;;12.68;3.88;;;;;;;9.24;49.77;98594.03;3158379;28;20087;-73
2023/03/27 04:00:10;;;;;;;9.35;3.58;;;;;;;9.21;49.90;98585.56;3164401;28;20116;-72
2023/03/27 04:01:44;;;;;;;9.30;3.30;;;;;;;9.19;50.14;98588.25;3151108;28;20052;-73
2023/03/27 04:03:15;;;;;;;9.40;3.13;;;;;;;9.21;50.02;98595.97;3148004;28;20055;-74
2023/03/27 04:04:47;;;;;;;9.23;3.42;;;;;;;9.21;50.19;98603.75;3159230;28;20530;-74
2023/03/27 04:06:19;;;;;;;7.68;3.53;;;;;;;9.19;50.23;98603.00;3159852;28;20120;-73
2023/03/27 04:07:50;;;;;;;10.07;3.35;;;;;;;9.20;50.25;98605.53;3159524;28;20056;-74
2023/03/27 04:09:22;;;;;;;13.43;3.72;;;;;;;9.15;50.60;98602.34;3159387;28;20055;-74
2023/03/27 04:10:54;;;;;;;6.70;3.08;;;;;;;9.09;50.70;98602.72;3159311;28;20551;-74
2023/03/27 04:12:27;;;;;;;10.10;3.40;;;;;;;9.07;50.92;98594.16;3158338;28;20052;-74
2023/03/27 04:13:59;;;;;;;7.60;3.25;;;;;;;9.06;50.61;98595.94;3158839;28;20115;-73
2023/03/27 04:15:32;;;;;;;12.80;3.15;;;;;;;9.04;50.93;98595.19;3159474;28;20281;-73
2023/03/27 04:17:05;;;;;;;6.57;3.50;;;;;;;9.07;50.80;98594.16;3159954;28;20098;-73
2023/03/27 04:18:39;;;;;;;14.40;3.33;;;;;;;9.04;51.19;98594.34;3160518;28;20055;-74
2023/03/27 04:20:12;;;;;;;7.85;3.58;;;;;;;9.01;51.34;98595.34;3161114;28;20048;-73
2023/03/27 04:21:46;;;;;;;8.95;3.30;;;;;;;8.99;51.49;98592.03;3160868;28;20055;-73
2023/03/27 04:23:18;;;;;;;15.77;3.50;;;;;;;8.95;51.31;98589.69;3159582;28;20075;-72
2023/03/27 04:24:53;;;;;;;9.75;3.17;;;;;;;8.92;51.39;98588.09;3159602;28;20074;-73
2023/03/27 04:26:26;;;;;;;11.07;3.58;;;;;;;8.92;51.34;98593.28;3160493;28;20380;-71
2023/03/27 04:28:01;;;;;;;12.02;3.50;;;;;;;8.94;51.36;98582.84;3155335;28;20715;-73
2023/03/27 04:29:33;;;;;;;14.55;4.07;;;;;;;8.89;51.53;98567.50;3158207;28;20055;-75
2023/03/27 04:31:07;;;;;;;7.80;2.90;;;;;;;8.93;51.80;98568.16;3158384;28;20051;-72
2023/03/27 04:32:41;;;;;;;12.38;4.25;;;;;;;8.91;51.60;98573.47;3160675;28;20271;-74
2023/03/27 04:34:11;;;;;;;10.35;3.53;;;;;;;8.94;51.63;98590.63;3161502;28;20505;-74
2023/03/27 04:35:43;;;;;;;11.52;3.88;;;;;;;8.94;51.40;98583.66;3158466;28;20051;-79
2023/03/27 04:37:15;;;;;;;18.70;3.95;;;;;;;8.94;51.51;98573.28;3162226;28;20055;-75
2023/03/27 04:38:48;;;;;;;14.88;3.85;;;;;;;8.77;51.68;98544.88;3163117;28;20076;-76
2023/03/27 04:40:20;;;;;;;12.23;4.10;;;;;;;8.65;51.60;98536.03;3162957;28;20602;-76
2023/03/27 04:42:13;;;;;;;11.27;3.55;;;;;;;8.96;51.42;98576.63;3163398;28;20055;-74
2023/03/27 04:43:45;;;;;;;7.82;3.85;;;;;;;8.94;51.54;98581.06;3162976;28;20055;-70
2023/03/27 04:45:19;;;;;;;9.15;3.78;;;;;;;8.95;51.67;98580.13;3171429;28;20043;-70
2023/03/27 04:46:51;;;;;;;15.27;3.92;;;;;;;8.98;51.79;98586.91;3171736;28;20417;-69
2023/03/27 04:48:25;;;;;;;12.63;4.65;;;;;;;8.99;52.01;98576.44;3171498;28;20079;-67
2023/03/27 04:49:58;;;;;;;12.45;4.40;;;;;;;9.01;52.16;98579.78;3171830;28;20142;-70
2023/03/27 04:51:31;;;;;;;53.70;26.60;;;;;;;9.03;52.14;98566.72;3171179;27;20330;-75
2023/03/27 04:53:03;;;;;;;;;;;;;;;9.03;51.93;98567.53;3172275;28;20062;-75
2023/03/27 04:54:35;;;;;;;34.28;16.60;;;;;;;9.03;52.29;98566.72;3171811;28;19966;-66
2023/03/27 04:56:08;;;;;;;18.30;7.75;;;;;;;9.07;52.42;98570.78;3171364;28;20055;-69
2023/03/27 04:57:42;;;;;;;14.65;5.18;;;;;;;9.10;52.37;98581.84;3169095;28;20040;-69
2023/03/27 04:59:15;;;;;;;12.05;4.70;;;;;;;9.13;52.30;98586.00;3166673;28;20054;-68
2023/03/27 05:00:49;;;;;;;18.10;5.05;;;;;;;9.16;52.56;98585.84;3162667;28;20159;-67
2023/03/27 05:02:21;;;;;;;6.72;4.13;;;;;;;9.13;53.22;98567.00;3162509;27;20396;-67
2023/03/27 05:03:55;;;;;;;9.35;4.80;;;;;;;9.13;53.60;98575.63;3161426;28;20543;-73
2023/03/27 05:05:27;;;;;;;14.30;5.13;;;;;;;8.32;53.36;98450.56;3162718;28;20047;-71
2023/03/27 05:06:59;;;;;;;11.47;4.90;;;;;;;9.13;53.54;98585.19;3162431;28;20597;-69
2023/03/27 05:08:31;;;;;;;12.30;5.43;;;;;;;9.16;53.62;98585.84;3162269;28;20688;-68
2023/03/27 05:10:04;;;;;;;23.33;5.45;;;;;;;9.20;53.39;98579.56;3161003;28;20105;-67
2023/03/27 05:11:36;;;;;;;12.90;5.40;;;;;;;9.23;53.26;98568.97;3160934;28;20048;-71
2023/03/27 05:13:08;;;;;;;16.20;5.43;;;;;;;9.29;53.32;98576.41;3156093;28;20105;-72
2023/03/27 05:14:40;;;;;;;14.15;6.10;;;;;;;8.97;53.30;98528.13;3158903;28;20105;-71
2023/03/27 05:16:12;;;;;;;15.45;5.13;;;;;;;9.39;53.43;98579.28;3162349;28;20052;-74
2023/03/27 05:17:51;;;;;;;13.15;5.00;;;;;;;9.46;53.50;98577.16;3161970;28;20530;-76
2023/03/27 05:19:24;;;;;;;19.25;5.45;;;;;;;9.52;53.30;98574.19;3161345;28;20429;-71
2023/03/27 05:20:56;;;;;;;19.38;6.10;;;;;;;9.59;53.28;98582.47;3162006;28;20044;-69
2023/03/27 05:22:27;;;;;;;13.98;5.38;;;;;;;9.64;53.13;98578.63;3162930;28;20481;-73
2023/03/27 05:23:59;;;;;;;18.95;5.68;;;;;;;9.70;52.98;98565.28;3162690;28;20606;-71
2023/03/27 05:25:32;;;;;;;16.27;5.85;;;;;;;9.74;53.57;98563.31;3161291;28;20126;-74
2023/03/27 05:27:04;;;;;;;20.80;6.63;;;;;;;9.74;53.75;98558.13;3160558;28;20110;-69
2023/03/27 05:28:38;;;;;;;13.57;6.03;;;;;;;9.72;54.18;98550.41;3152305;28;20055;-71
2023/03/27 05:30:11;;;;;;;27.15;12.60;;;;;;;9.68;54.32;98548.09;3162301;28;20094;-75
2023/03/27 05:31:43;;;;;;;19.25;8.15;;;;;;;9.69;54.33;98542.78;3154307;28;20556;-68
2023/03/27 05:33:15;;;;;;;65.53;27.27;;;;;;;9.68;54.70;98550.72;3160862;28;20051;-69
2023/03/27 05:34:50;;;;;;;13.80;6.85;;;;;;;9.70;54.82;98560.09;3161379;28;20769;-71
2023/03/27 05:36:22;;;;;;;19.48;8.18;;;;;;;9.52;55.33;98527.41;3161676;28;20385;-69
2023/03/27 05:37:58;;;;;;;40.17;19.95;;;;;;;9.62;55.61;98553.69;3161498;28;20508;-74
2023/03/27 05:39:30;;;;;;;36.85;17.17;;;;;;;9.66;55.76;98562.94;3165775;28;20044;-72
2023/03/27 05:41:03;;;;;;;23.67;13.10;;;;;;;9.67;56.09;98556.81;3165570;28;20075;-73
2023/03/27 05:42:35;;;;;;;19.05;9.60;;;;;;;9.66;56.99;98539.56;3164123;28;20601;-73
2023/03/27 05:44:07;;;;;;;25.20;12.52;;;;;;;9.59;57.56;98526.13;3159004;28;20504;-69
2023/03/27 05:45:39;;;;;;;21.52;9.30;;;;;;;9.48;57.78;98516.38;3164704;28;20047;-73
2023/03/27 05:47:13;;;;;;;17.52;8.98;;;;;;;9.26;57.86;98495.22;3165530;28;20047;-66
2023/03/27 05:48:45;;;;;;;14.85;8.55;;;;;;;9.73;57.88;98551.25;3165851;27;20086;-67
2023/03/27 05:50:19;;;;;;;16.92;8.43;;;;;;;9.87;57.85;98550.41;3166075;27;20047;-72
2023/03/27 05:51:51;;;;;;;13.55;8.07;;;;;;;10.11;57.86;98541.03;3165703;28;20155;-69
2023/03/27 05:53:23;;;;;;;18.15;9.07;;;;;;;10.36;57.74;98542.13;3159620;28;20071;-68
2023/03/27 05:54:55;;;;;;;16.52;8.38;;;;;;;10.63;57.42;98537.72;3165182;28;20051;-71
2023/03/27 05:56:27;;;;;;;16.45;8.93;;;;;;;10.93;56.84;98529.66;3159306;28;20117;-70
2023/03/27 05:57:59;;;;;;;21.52;9.43;;;;;;;11.34;56.15;98536.44;3161992;28;20075;-70
2023/03/27 05:59:32;;;;;;;16.60;9.38;;;;;;;11.65;54.99;98510.00;3164845;27;20051;-73
2023/03/27 06:01:04;;;;;;;17.63;9.52;;;;;;;12.11;53.96;98520.66;3165341;28;20048;-72
2023/03/27 06:02:36;;;;;;;16.02;8.68;;;;;;;12.25;53.28;98528.34;3165244;28;20052;-72
2023/03/27 06:04:09;;;;;;;14.40;8.45;;;;;;;12.15;53.78;98534.31;3165385;28;20055;-72
2023/03/27 06:05:43;;;;;;;16.17;8.77;;;;;;;11.99;54.01;98511.94;3165853;28;20059;-76
2023/03/27 06:07:14;;;;;;;16.63;9.65;;;;;;;11.96;54.17;98519.16;3165123;28;20048;-73
2023/03/27 06:08:46;;;;;;;19.33;11.02;;;;;;;11.86;54.46;98526.81;3166702;28;20241;-75
2023/03/27 06:10:19;;;;;;;16.67;9.27;;;;;;;11.72;54.88;98511.28;3166804;28;20749;-76
2023/03/27 06:11:51;;;;;;;20.63;11.02;;;;;;;11.65;55.52;98512.63;3154204;28;20048;-75
2023/03/27 06:13:23;;;;;;;20.52;9.70;;;;;;;11.48;55.94;98517.25;3160536;28;20058;-72
2023/03/27 06:14:55;;;;;;;32.40;15.35;;;;;;;11.36;56.69;98525.94;3164360;28;20128;-72
2023/03/27 06:16:27;;;;;;;17.85;10.65;;;;;;;11.31;56.63;98517.59;3165131;28;20096;-70
2023/03/27 06:17:59;;;;;;;19.85;10.60;;;;;;;11.19;56.90;98513.22;3165983;28;20130;-77
2023/03/27 06:19:31;;;;;;;21.48;10.27;;;;;;;11.22;57.20;98508.63;3165634;28;20059;-73
2023/03/27 06:21:05;;;;;;;19.23;10.82;;;;;;;11.20;57.36;98509.66;3165225;28;20097;-69
2023/03/27 06:22:39;;;;;;;22.20;11.13;;;;;;;11.15;57.36;98509.97;3165349;28;20083;-75
2023/03/27 06:24:11;;;;;;;29.00;14.30;;;;;;;11.11;57.88;98509.34;3161423;28;20114;-73
2023/03/27 06:25:43;;;;;;;31.05;15.10;;;;;;;11.12;58.14;98510.16;3156897;28;20117;-70
2023/03/27 06:27:15;;;;;;;33.33;15.60;;;;;;;11.07;58.60;98507.91;3163203;28;20869;-72
2023/03/27 06:28:47;;;;;;;36.75;17.02;;;;;;;11.05;58.91;98504.56;3163285;28;20062;-72
2023/03/27 06:30:22;;;;;;;27.48;13.38;;;;;;;11.11;58.84;98495.50;3162222;28;20438;-71
2023/03/27 06:31:56;;;;;;;32.28;12.00;;;;;;;11.20;58.65;98507.06;3160169;28;20937;-69
2023/03/27 06:33:28;;;;;;;21.70;11.73;;;;;;;11.28;58.40;98517.78;3160407;28;20104;-71
2023/03/27 06:35:01;;;;;;;19.15;11.15;;;;;;;11.30;58.07;98516.75;3160383;28;20055;-70
2023/03/27 06:36:34;;;;;;;29.95;12.20;;;;;;;11.35;58.36;98511.22;3160141;28;20275;-73
2023/03/27 06:38:07;;;;;;;24.58;11.40;;;;;;;11.48;58.09;98506.84;3160389;28;20082;-69
2023/03/27 06:39:39;;;;;;;24.60;11.35;;;;;;;11.61;57.87;98504.19;3160775;28;20047;-73
2023/03/27 06:41:12;;;;;;;23.30;10.82;;;;;;;11.73;57.71;98515.53;3156374;28;20109;-74
2023/03/27 06:43:04;;;;;;;17.75;10.93;;;;;;;11.68;57.24;98502.81;3155998;28;20432;-76
2023/03/27 06:44:36;;;;;;;19.15;10.82;;;;;;;11.57;57.61;98493.16;3169830;28;20109;-76
2023/03/27 06:46:08;;;;;;;22.45;11.07;;;;;;;11.56;57.66;98491.47;3170284;28;20120;-74
2023/03/27 06:47:39;;;;;;;18.75;10.00;;;;;;;11.69;57.91;98501.06;3171484;28;20071;-74
2023/03/27 06:49:11;;;;;;;22.77;11.18;;;;;;;12.00;57.98;98486.69;3170861;28;20055;-71
2023/03/27 06:50:43;;;;;;;29.10;10.95;;;;;;;12.47;56.83;98490.22;3161406;28;20055;-69
2023/03/27 06:52:17;;;;;;;21.88;10.60;;;;;;;12.73;56.06;98501.34;3161634;28;20069;-75
2023/03/27 06:53:49;;;;;;;;;;;;;;;12.34;55.58;98435.47;3161037;28;20146;-73
2023/03/27 06:55:23;;;;;;;20.60;10.15;;;;;;;12.83;55.87;98481.41;3161394;28;19935;-72
2023/03/27 06:56:55;;;;;;;23.90;11.93;;;;;;;13.06;55.33;98466.59;3159704;28;20486;-75
2023/03/27 06:58:27;;;;;;;18.65;9.88;;;;;;;13.43;54.82;98485.56;3161255;28;20051;-73
2023/03/27 06:59:59;;;;;;;17.08;10.45;;;;;;;13.53;53.68;98488.28;3161224;28;20650;-72
2023/03/27 07:01:31;;;;;;;22.50;11.55;;;;;;;13.46;53.32;98471.41;3153304;28;20292;-72
2023/03/27 07:03:05;;;;;;;19.05;10.50;;;;;;;13.35;53.33;98467.00;3154309;28;20062;-78
2023/03/27 07:04:37;;;;;;;22.80;11.50;;;;;;;13.23;53.69;98464.50;3159864;28;20381;-74
2023/03/27 07:06:09;;;;;;;21.17;11.52;;;;;;;13.20;53.82;98461.16;3160049;28;20055;-75
2023/03/27 07:07:43;;;;;;;17.83;10.73;;;;;;;13.06;54.26;98456.16;3160574;28;20059;-77
2023/03/27 07:09:15;;;;;;;22.05;11.25;;;;;;;12.93;54.47;98442.38;3159908;27;20799;-73
2023/03/27 07:10:47;;;;;;;21.35;12.25;;;;;;;12.62;54.51;98409.91;3160611;28;20047;-79
2023/03/27 07:12:20;;;;;;;23.42;12.73;;;;;;;12.65;55.24;98430.56;3160353;28;20096;-77
2023/03/27 07:13:52;;;;;;;22.17;12.25;;;;;;;12.44;55.85;98431.22;3148490;28;20052;-74
2023/03/27 07:15:25;;;;;;;30.73;17.63;;;;;;;12.40;56.44;98414.13;3160981;28;20108;-78
2023/03/27 07:16:57;;;;;;;;;;;;;;;12.47;56.51;98404.06;3160587;28;20051;-69
2023/03/27 07:18:29;;;;;;;29.33;12.20;;;;;;;12.68;56.38;98391.16;3155723;28;20002;-76
2023/03/27 07:20:02;;;;;;;27.08;11.45;;;;;;;13.08;56.26;98391.53;3159714;28;20329;-77
2023/03/27 07:21:34;;;;;;;;;;;;;;;13.45;55.43;98400.91;3161111;28;20051;-77
2023/03/27 07:23:08;;;;;;;23.02;11.25;;;;;;;13.42;54.31;98350.50;3160557;28;19924;-76
2023/03/27 07:24:40;;;;;;;20.88;12.50;;;;;;;13.89;53.46;98366.75;3160144;28;20066;-74
2023/03/27 07:26:12;;;;;;;19.17;11.70;;;;;;;14.03;53.25;98347.31;3160456;28;20560;-75